sensor_id;sensor_type;location;lat;lon;timestamp;temperature;humidity
14188;DHT22;7175;51.978;5.330;2023-05-07T00:01:16;14.90;99.90
14188;DHT22;7175;51.978;5.330;2023-05-07T00:03:46;14.90;99.90
14188;DHT22;7175;51.978;5.330;2023-05-07T00:06:14;14.90;99.90
14188;DHT22;7175;51.978;5.330;2023-05-07T00:08:43;14.90;99.90
14188;DHT22;7175;51.978;5.330;2023-05-07T00:11:12;14.90;99.90
14188;DHT22;7175;51.978;5.330;2023-05-07T00:13:40;14.80;99.90
14188;DHT22;7175;51.978;5.330;2023-05-07T00:16:08;14.80;99.90
14188;DHT22;7175;51.978;5.330;2023-05-07T00:18:36;14.80;99.90
14188;DHT22;7175;51.978;5.330;2023-05-07T00:21:04;14.80;99.90
14188;DHT22;7175;51.978;5.330;2023-05-07T00:23:33;14.80;99.90
14188;DHT22;7175;51.978;5.330;2023-05-07T00:26:02;14.80;99.90
14188;DHT22;7175;51.978;5.330;2023-05-07T00:28:32;14.80;99.90
14188;DHT22;7175;51.978;5.330;2023-05-07T00:31:00;14.80;99.90
14188;DHT22;7175;51.978;5.330;2023-05-07T00:33:28;14.80;99.90
14188;DHT22;7175;51.978;5.330;2023-05-07T00:35:56;14.80;99.90
14188;DHT22;7175;51.978;5.330;2023-05-07T00:38:24;14.80;99.90
14188;DHT22;7175;51.978;5.330;2023-05-07T00:40:52;14.80;99.90
14188;DHT22;7175;51.978;5.330;2023-05-07T00:43:21;14.80;99.90
14188;DHT22;7175;51.978;5.330;2023-05-07T00:45:50;14.80;99.90
14188;DHT22;7175;51.978;5.330;2023-05-07T00:48:18;14.80;99.90
14188;DHT22;7175;51.978;5.330;2023-05-07T00:50:47;14.70;99.90
14188;DHT22;7175;51.978;5.330;2023-05-07T00:53:15;14.70;99.90
14188;DHT22;7175;51.978;5.330;2023-05-07T00:55:44;14.70;99.90
14188;DHT22;7175;51.978;5.330;2023-05-07T00:58:12;14.70;99.90
14188;DHT22;7175;51.978;5.330;2023-05-07T01:00:40;14.70;99.90
14188;DHT22;7175;51.978;5.330;2023-05-07T01:03:10;14.70;99.90
14188;DHT22;7175;51.978;5.330;2023-05-07T01:05:38;14.70;99.90
14188;DHT22;7175;51.978;5.330;2023-05-07T01:08:08;14.70;99.90
14188;DHT22;7175;51.978;5.330;2023-05-07T01:10:37;14.70;99.90
14188;DHT22;7175;51.978;5.330;2023-05-07T01:13:09;14.70;99.90
14188;DHT22;7175;51.978;5.330;2023-05-07T01:15:38;14.70;99.90
14188;DHT22;7175;51.978;5.330;2023-05-07T01:18:07;14.70;99.90
14188;DHT22;7175;51.978;5.330;2023-05-07T01:20:37;14.70;99.90
14188;DHT22;7175;51.978;5.330;2023-05-07T01:23:07;14.70;99.90
14188;DHT22;7175;51.978;5.330;2023-05-07T01:25:35;14.70;99.90
14188;DHT22;7175;51.978;5.330;2023-05-07T01:28:03;14.70;99.90
14188;DHT22;7175;51.978;5.330;2023-05-07T01:30:33;14.80;99.90
14188;DHT22;7175;51.978;5.330;2023-05-07T01:33:04;14.70;99.90
14188;DHT22;7175;51.978;5.330;2023-05-07T01:35:38;14.70;99.90
14188;DHT22;7175;51.978;5.330;2023-05-07T01:38:10;14.70;99.90
14188;DHT22;7175;51.978;5.330;2023-05-07T01:40:38;14.70;99.90
14188;DHT22;7175;51.978;5.330;2023-05-07T01:43:06;14.70;99.90
14188;DHT22;7175;51.978;5.330;2023-05-07T01:45:35;14.80;99.90
14188;DHT22;7175;51.978;5.330;2023-05-07T01:48:04;14.80;99.90
14188;DHT22;7175;51.978;5.330;2023-05-07T01:50:32;14.70;99.90
14188;DHT22;7175;51.978;5.330;2023-05-07T01:53:01;14.70;99.90
14188;DHT22;7175;51.978;5.330;2023-05-07T01:55:31;14.70;99.90
14188;DHT22;7175;51.978;5.330;2023-05-07T01:57:59;14.70;99.90
14188;DHT22;7175;51.978;5.330;2023-05-07T02:00:27;14.70;99.90
14188;DHT22;7175;51.978;5.330;2023-05-07T02:02:55;14.80;99.90
14188;DHT22;7175;51.978;5.330;2023-05-07T02:05:24;14.80;99.90
14188;DHT22;7175;51.978;5.330;2023-05-07T02:07:52;14.80;99.90
14188;DHT22;7175;51.978;5.330;2023-05-07T02:10:20;14.70;99.90
14188;DHT22;7175;51.978;5.330;2023-05-07T02:12:49;14.80;99.90
14188;DHT22;7175;51.978;5.330;2023-05-07T02:15:18;14.80;99.90
14188;DHT22;7175;51.978;5.330;2023-05-07T02:17:59;14.80;99.90
14188;DHT22;7175;51.978;5.330;2023-05-07T02:20:28;14.80;99.90
14188;DHT22;7175;51.978;5.330;2023-05-07T02:22:56;14.70;99.90
14188;DHT22;7175;51.978;5.330;2023-05-07T02:25:24;14.70;99.90
14188;DHT22;7175;51.978;5.330;2023-05-07T02:27:54;14.70;99.90
14188;DHT22;7175;51.978;5.330;2023-05-07T02:30:22;14.80;99.90
14188;DHT22;7175;51.978;5.330;2023-05-07T02:32:50;14.70;99.90
14188;DHT22;7175;51.978;5.330;2023-05-07T02:35:18;14.80;99.90
14188;DHT22;7175;51.978;5.330;2023-05-07T02:37:47;14.80;99.90
14188;DHT22;7175;51.978;5.330;2023-05-07T02:40:15;14.70;99.90
14188;DHT22;7175;51.978;5.330;2023-05-07T02:42:43;14.70;99.90
14188;DHT22;7175;51.978;5.330;2023-05-07T02:45:12;14.70;99.90
14188;DHT22;7175;51.978;5.330;2023-05-07T02:47:41;14.60;99.90
14188;DHT22;7175;51.978;5.330;2023-05-07T02:50:10;14.60;99.90
14188;DHT22;7175;51.978;5.330;2023-05-07T02:52:38;14.50;99.90
14188;DHT22;7175;51.978;5.330;2023-05-07T02:55:07;14.50;99.90
14188;DHT22;7175;51.978;5.330;2023-05-07T02:57:36;14.50;99.90
14188;DHT22;7175;51.978;5.330;2023-05-07T03:00:13;14.50;99.90
14188;DHT22;7175;51.978;5.330;2023-05-07T03:02:41;14.40;99.90
14188;DHT22;7175;51.978;5.330;2023-05-07T03:05:10;14.40;99.90
14188;DHT22;7175;51.978;5.330;2023-05-07T03:07:38;14.40;99.90
14188;DHT22;7175;51.978;5.330;2023-05-07T03:10:08;14.30;99.90
14188;DHT22;7175;51.978;5.330;2023-05-07T03:12:37;14.30;99.90
14188;DHT22;7175;51.978;5.330;2023-05-07T03:15:06;14.30;99.90
14188;DHT22;7175;51.978;5.330;2023-05-07T03:17:36;14.30;99.90
14188;DHT22;7175;51.978;5.330;2023-05-07T03:20:05;14.30;99.90
14188;DHT22;7175;51.978;5.330;2023-05-07T03:22:34;14.30;99.90
14188;DHT22;7175;51.978;5.330;2023-05-07T03:25:02;14.20;99.90
14188;DHT22;7175;51.978;5.330;2023-05-07T03:27:31;14.20;99.90
14188;DHT22;7175;51.978;5.330;2023-05-07T03:29:59;14.20;99.90
14188;DHT22;7175;51.978;5.330;2023-05-07T03:32:27;14.20;99.90
14188;DHT22;7175;51.978;5.330;2023-05-07T03:34:57;14.20;99.90
14188;DHT22;7175;51.978;5.330;2023-05-07T03:37:25;14.10;99.90
14188;DHT22;7175;51.978;5.330;2023-05-07T03:39:53;14.10;99.90
14188;DHT22;7175;51.978;5.330;2023-05-07T03:42:21;14.10;99.90
14188;DHT22;7175;51.978;5.330;2023-05-07T03:44:50;14.00;99.90
14188;DHT22;7175;51.978;5.330;2023-05-07T03:47:18;14.00;99.90
14188;DHT22;7175;51.978;5.330;2023-05-07T03:49:47;13.90;99.90
14188;DHT22;7175;51.978;5.330;2023-05-07T03:52:17;13.90;99.90
14188;DHT22;7175;51.978;5.330;2023-05-07T03:54:49;13.90;99.90
14188;DHT22;7175;51.978;5.330;2023-05-07T03:57:17;13.90;99.90
14188;DHT22;7175;51.978;5.330;2023-05-07T03:59:45;13.90;99.90
14188;DHT22;7175;51.978;5.330;2023-05-07T04:02:13;13.90;99.90
14188;DHT22;7175;51.978;5.330;2023-05-07T04:04:41;13.90;99.90
14188;DHT22;7175;51.978;5.330;2023-05-07T04:07:09;14.00;99.90
14188;DHT22;7175;51.978;5.330;2023-05-07T04:09:39;14.00;99.90
14188;DHT22;7175;51.978;5.330;2023-05-07T04:12:07;14.00;99.90
14188;DHT22;7175;51.978;5.330;2023-05-07T04:14:35;14.00;99.90
14188;DHT22;7175;51.978;5.330;2023-05-07T04:17:03;14.00;99.90
14188;DHT22;7175;51.978;5.330;2023-05-07T04:19:33;14.00;99.90
14188;DHT22;7175;51.978;5.330;2023-05-07T04:22:01;14.10;99.90
14188;DHT22;7175;51.978;5.330;2023-05-07T04:24:31;14.10;99.90
14188;DHT22;7175;51.978;5.330;2023-05-07T04:27:02;14.20;99.90
14188;DHT22;7175;51.978;5.330;2023-05-07T04:29:30;14.20;99.90
14188;DHT22;7175;51.978;5.330;2023-05-07T04:31:58;14.20;99.90
14188;DHT22;7175;51.978;5.330;2023-05-07T04:34:26;14.20;99.90
14188;DHT22;7175;51.978;5.330;2023-05-07T04:36:59;14.20;99.90
14188;DHT22;7175;51.978;5.330;2023-05-07T04:39:27;14.20;99.90
14188;DHT22;7175;51.978;5.330;2023-05-07T04:41:55;14.30;99.90
14188;DHT22;7175;51.978;5.330;2023-05-07T04:44:24;14.20;99.90
14188;DHT22;7175;51.978;5.330;2023-05-07T04:46:52;14.20;99.90
14188;DHT22;7175;51.978;5.330;2023-05-07T04:49:21;14.20;99.90
14188;DHT22;7175;51.978;5.330;2023-05-07T04:51:49;14.20;99.90
14188;DHT22;7175;51.978;5.330;2023-05-07T04:54:17;14.20;99.90
14188;DHT22;7175;51.978;5.330;2023-05-07T04:56:45;14.30;99.90
14188;DHT22;7175;51.978;5.330;2023-05-07T04:59:13;14.30;99.90
14188;DHT22;7175;51.978;5.330;2023-05-07T05:01:43;14.40;99.90
14188;DHT22;7175;51.978;5.330;2023-05-07T05:04:11;14.40;99.90
14188;DHT22;7175;51.978;5.330;2023-05-07T05:06:40;14.40;99.90
14188;DHT22;7175;51.978;5.330;2023-05-07T05:09:08;14.40;99.90
14188;DHT22;7175;51.978;5.330;2023-05-07T05:11:36;14.40;99.90
14188;DHT22;7175;51.978;5.330;2023-05-07T05:14:04;14.50;99.90
14188;DHT22;7175;51.978;5.330;2023-05-07T05:16:32;14.50;99.90
14188;DHT22;7175;51.978;5.330;2023-05-07T05:19:02;14.50;99.90
14188;DHT22;7175;51.978;5.330;2023-05-07T05:21:31;14.50;99.90
14188;DHT22;7175;51.978;5.330;2023-05-07T05:23:59;14.60;99.90
14188;DHT22;7175;51.978;5.330;2023-05-07T05:26:27;14.50;99.90
14188;DHT22;7175;51.978;5.330;2023-05-07T05:28:55;14.60;99.90
14188;DHT22;7175;51.978;5.330;2023-05-07T05:31:23;14.60;99.90
14188;DHT22;7175;51.978;5.330;2023-05-07T05:33:52;14.70;99.90
14188;DHT22;7175;51.978;5.330;2023-05-07T05:36:21;14.70;99.90
14188;DHT22;7175;51.978;5.330;2023-05-07T05:38:50;14.70;99.90
14188;DHT22;7175;51.978;5.330;2023-05-07T05:41:18;14.70;99.90
14188;DHT22;7175;51.978;5.330;2023-05-07T05:43:47;14.70;99.90
14188;DHT22;7175;51.978;5.330;2023-05-07T05:46:16;14.70;99.90
14188;DHT22;7175;51.978;5.330;2023-05-07T05:48:44;14.70;99.90
14188;DHT22;7175;51.978;5.330;2023-05-07T05:51:12;14.70;99.90
14188;DHT22;7175;51.978;5.330;2023-05-07T05:53:43;14.80;99.90
14188;DHT22;7175;51.978;5.330;2023-05-07T05:56:11;14.80;99.90
14188;DHT22;7175;51.978;5.330;2023-05-07T05:58:39;14.80;99.90
14188;DHT22;7175;51.978;5.330;2023-05-07T06:01:08;14.80;99.90
14188;DHT22;7175;51.978;5.330;2023-05-07T06:03:36;14.90;99.90
14188;DHT22;7175;51.978;5.330;2023-05-07T06:06:04;14.90;99.90
14188;DHT22;7175;51.978;5.330;2023-05-07T06:08:32;14.90;99.90
14188;DHT22;7175;51.978;5.330;2023-05-07T06:11:02;15.00;99.90
14188;DHT22;7175;51.978;5.330;2023-05-07T06:13:30;15.00;99.90
14188;DHT22;7175;51.978;5.330;2023-05-07T06:15:59;15.00;99.90
14188;DHT22;7175;51.978;5.330;2023-05-07T06:18:27;15.10;99.90
14188;DHT22;7175;51.978;5.330;2023-05-07T06:20:56;15.00;99.90
14188;DHT22;7175;51.978;5.330;2023-05-07T06:23:24;15.00;99.90
14188;DHT22;7175;51.978;5.330;2023-05-07T06:25:52;15.10;99.90
14188;DHT22;7175;51.978;5.330;2023-05-07T06:28:22;15.10;99.90
14188;DHT22;7175;51.978;5.330;2023-05-07T06:30:50;15.20;99.90
14188;DHT22;7175;51.978;5.330;2023-05-07T06:33:19;15.20;99.90
14188;DHT22;7175;51.978;5.330;2023-05-07T06:35:47;15.30;99.90
14188;DHT22;7175;51.978;5.330;2023-05-07T06:38:16;15.20;99.90
14188;DHT22;7175;51.978;5.330;2023-05-07T06:40:48;15.20;99.90
14188;DHT22;7175;51.978;5.330;2023-05-07T06:43:16;15.20;99.90
14188;DHT22;7175;51.978;5.330;2023-05-07T06:45:46;15.20;99.90
14188;DHT22;7175;51.978;5.330;2023-05-07T06:48:14;15.20;99.90
14188;DHT22;7175;51.978;5.330;2023-05-07T06:50:42;15.20;99.90
14188;DHT22;7175;51.978;5.330;2023-05-07T06:53:10;15.30;99.90
14188;DHT22;7175;51.978;5.330;2023-05-07T06:55:38;15.30;99.90
14188;DHT22;7175;51.978;5.330;2023-05-07T06:58:07;15.30;99.90
14188;DHT22;7175;51.978;5.330;2023-05-07T07:00:35;15.30;99.90
14188;DHT22;7175;51.978;5.330;2023-05-07T07:03:05;15.40;99.90
14188;DHT22;7175;51.978;5.330;2023-05-07T07:05:33;15.50;99.90
14188;DHT22;7175;51.978;5.330;2023-05-07T07:08:01;15.70;99.90
14188;DHT22;7175;51.978;5.330;2023-05-07T07:10:30;15.80;99.90
14188;DHT22;7175;51.978;5.330;2023-05-07T07:12:58;15.80;99.90
14188;DHT22;7175;51.978;5.330;2023-05-07T07:15:26;15.80;99.90
14188;DHT22;7175;51.978;5.330;2023-05-07T07:17:54;15.80;99.90
14188;DHT22;7175;51.978;5.330;2023-05-07T07:20:24;15.80;99.90
14188;DHT22;7175;51.978;5.330;2023-05-07T07:22:52;15.80;99.90
14188;DHT22;7175;51.978;5.330;2023-05-07T07:25:20;15.80;99.90
14188;DHT22;7175;51.978;5.330;2023-05-07T07:27:49;16.00;99.90
14188;DHT22;7175;51.978;5.330;2023-05-07T07:30:17;16.00;99.90
14188;DHT22;7175;51.978;5.330;2023-05-07T07:32:45;16.10;99.90
14188;DHT22;7175;51.978;5.330;2023-05-07T07:35:14;16.20;99.90
14188;DHT22;7175;51.978;5.330;2023-05-07T07:37:43;16.10;99.90
14188;DHT22;7175;51.978;5.330;2023-05-07T07:40:12;16.10;99.90
14188;DHT22;7175;51.978;5.330;2023-05-07T07:42:40;16.00;99.90
14188;DHT22;7175;51.978;5.330;2023-05-07T07:45:08;15.90;99.90
14188;DHT22;7175;51.978;5.330;2023-05-07T07:47:37;16.00;99.90
14188;DHT22;7175;51.978;5.330;2023-05-07T07:50:06;16.00;99.90
14188;DHT22;7175;51.978;5.330;2023-05-07T07:52:35;16.00;99.90
14188;DHT22;7175;51.978;5.330;2023-05-07T07:55:10;15.90;99.90
14188;DHT22;7175;51.978;5.330;2023-05-07T07:57:39;15.80;99.90
14188;DHT22;7175;51.978;5.330;2023-05-07T08:00:08;15.80;99.90
14188;DHT22;7175;51.978;5.330;2023-05-07T08:02:37;15.80;99.90
14188;DHT22;7175;51.978;5.330;2023-05-07T08:05:06;15.80;99.90
14188;DHT22;7175;51.978;5.330;2023-05-07T08:07:35;15.90;99.90
14188;DHT22;7175;51.978;5.330;2023-05-07T08:10:04;15.80;99.90
14188;DHT22;7175;51.978;5.330;2023-05-07T08:12:34;15.90;99.90
14188;DHT22;7175;51.978;5.330;2023-05-07T08:15:03;15.90;99.90
14188;DHT22;7175;51.978;5.330;2023-05-07T08:17:32;16.00;99.90
14188;DHT22;7175;51.978;5.330;2023-05-07T08:20:00;15.90;99.90
14188;DHT22;7175;51.978;5.330;2023-05-07T08:22:29;15.80;99.90
14188;DHT22;7175;51.978;5.330;2023-05-07T08:24:58;15.90;99.90
14188;DHT22;7175;51.978;5.330;2023-05-07T08:27:26;15.90;99.90
14188;DHT22;7175;51.978;5.330;2023-05-07T08:29:57;15.90;99.90
14188;DHT22;7175;51.978;5.330;2023-05-07T08:32:25;15.90;99.90
14188;DHT22;7175;51.978;5.330;2023-05-07T08:34:54;15.90;99.90
14188;DHT22;7175;51.978;5.330;2023-05-07T08:37:23;16.00;99.90
14188;DHT22;7175;51.978;5.330;2023-05-07T08:39:51;16.20;99.90
14188;DHT22;7175;51.978;5.330;2023-05-07T08:42:20;16.20;99.90
14188;DHT22;7175;51.978;5.330;2023-05-07T08:44:51;16.30;99.90
14188;DHT22;7175;51.978;5.330;2023-05-07T08:47:26;16.30;99.90
14188;DHT22;7175;51.978;5.330;2023-05-07T08:49:58;16.50;99.90
14188;DHT22;7175;51.978;5.330;2023-05-07T08:52:26;16.70;99.90
14188;DHT22;7175;51.978;5.330;2023-05-07T08:54:55;16.90;99.90
14188;DHT22;7175;51.978;5.330;2023-05-07T08:57:24;16.70;99.90
14188;DHT22;7175;51.978;5.330;2023-05-07T08:59:53;16.80;99.90
14188;DHT22;7175;51.978;5.330;2023-05-07T09:02:23;16.90;99.90
14188;DHT22;7175;51.978;5.330;2023-05-07T09:04:52;17.00;99.90
14188;DHT22;7175;51.978;5.330;2023-05-07T09:07:21;17.20;99.90
14188;DHT22;7175;51.978;5.330;2023-05-07T09:09:49;17.10;99.90
14188;DHT22;7175;51.978;5.330;2023-05-07T09:12:18;17.10;99.90
14188;DHT22;7175;51.978;5.330;2023-05-07T09:14:47;17.10;99.90
14188;DHT22;7175;51.978;5.330;2023-05-07T09:17:16;17.30;99.90
14188;DHT22;7175;51.978;5.330;2023-05-07T09:19:46;17.60;99.90
14188;DHT22;7175;51.978;5.330;2023-05-07T09:22:14;18.00;99.90
14188;DHT22;7175;51.978;5.330;2023-05-07T09:24:47;18.20;99.90
14188;DHT22;7175;51.978;5.330;2023-05-07T09:27:16;18.10;99.90
14188;DHT22;7175;51.978;5.330;2023-05-07T09:29:45;18.10;99.90
14188;DHT22;7175;51.978;5.330;2023-05-07T09:32:14;18.10;99.90
14188;DHT22;7175;51.978;5.330;2023-05-07T09:34:43;18.30;99.90
14188;DHT22;7175;51.978;5.330;2023-05-07T09:37:13;18.40;99.90
14188;DHT22;7175;51.978;5.330;2023-05-07T09:39:43;18.70;99.90
14188;DHT22;7175;51.978;5.330;2023-05-07T09:42:12;19.20;99.90
14188;DHT22;7175;51.978;5.330;2023-05-07T09:44:43;19.10;99.90
14188;DHT22;7175;51.978;5.330;2023-05-07T09:47:15;19.10;99.90
14188;DHT22;7175;51.978;5.330;2023-05-07T09:49:48;19.20;99.90
14188;DHT22;7175;51.978;5.330;2023-05-07T09:52:18;19.50;99.90
14188;DHT22;7175;51.978;5.330;2023-05-07T09:54:47;19.30;99.90
14188;DHT22;7175;51.978;5.330;2023-05-07T09:57:17;19.70;99.90
14188;DHT22;7175;51.978;5.330;2023-05-07T09:59:48;19.70;99.90
14188;DHT22;7175;51.978;5.330;2023-05-07T10:02:18;19.40;99.90
14188;DHT22;7175;51.978;5.330;2023-05-07T10:04:48;19.40;99.90
14188;DHT22;7175;51.978;5.330;2023-05-07T10:07:18;19.60;99.90
14188;DHT22;7175;51.978;5.330;2023-05-07T10:09:47;19.80;99.90
14188;DHT22;7175;51.978;5.330;2023-05-07T10:12:16;20.10;99.90
14188;DHT22;7175;51.978;5.330;2023-05-07T10:14:45;20.00;99.90
14188;DHT22;7175;51.978;5.330;2023-05-07T10:17:16;20.30;99.90
14188;DHT22;7175;51.978;5.330;2023-05-07T10:19:45;20.70;99.90
14188;DHT22;7175;51.978;5.330;2023-05-07T10:22:14;20.30;99.90
14188;DHT22;7175;51.978;5.330;2023-05-07T10:24:45;20.20;99.90
14188;DHT22;7175;51.978;5.330;2023-05-07T10:27:16;20.70;99.90
14188;DHT22;7175;51.978;5.330;2023-05-07T10:29:55;20.50;99.90
14188;DHT22;7175;51.978;5.330;2023-05-07T10:32:35;20.70;99.90
14188;DHT22;7175;51.978;5.330;2023-05-07T10:35:09;21.00;99.90
14188;DHT22;7175;51.978;5.330;2023-05-07T10:37:39;21.10;99.90
14188;DHT22;7175;51.978;5.330;2023-05-07T10:40:11;21.00;99.90
14188;DHT22;7175;51.978;5.330;2023-05-07T10:42:53;21.20;99.90
14188;DHT22;7175;51.978;5.330;2023-05-07T10:45:22;21.00;99.90
14188;DHT22;7175;51.978;5.330;2023-05-07T10:48:11;21.10;99.90
14188;DHT22;7175;51.978;5.330;2023-05-07T10:50:43;21.20;99.90
14188;DHT22;7175;51.978;5.330;2023-05-07T10:53:21;21.20;99.90
14188;DHT22;7175;51.978;5.330;2023-05-07T10:56:25;21.10;99.90
14188;DHT22;7175;51.978;5.330;2023-05-07T11:01:59;21.20;99.90
14188;DHT22;7175;51.978;5.330;2023-05-07T11:04:30;21.20;99.90
14188;DHT22;7175;51.978;5.330;2023-05-07T11:07:29;21.10;99.90
14188;DHT22;7175;51.978;5.330;2023-05-07T11:10:02;20.80;99.90
14188;DHT22;7175;51.978;5.330;2023-05-07T11:12:50;20.60;99.90
14188;DHT22;7175;51.978;5.330;2023-05-07T11:15:42;20.70;99.90
14188;DHT22;7175;51.978;5.330;2023-05-07T11:18:12;20.70;99.90
14188;DHT22;7175;51.978;5.330;2023-05-07T11:20:52;21.00;99.90
14188;DHT22;7175;51.978;5.330;2023-05-07T11:26:45;21.00;99.90
14188;DHT22;7175;51.978;5.330;2023-05-07T11:29:17;21.40;99.90
14188;DHT22;7175;51.978;5.330;2023-05-07T11:31:49;21.20;99.90
14188;DHT22;7175;51.978;5.330;2023-05-07T11:34:22;21.50;99.90
14188;DHT22;7175;51.978;5.330;2023-05-07T11:36:50;21.80;99.90
14188;DHT22;7175;51.978;5.330;2023-05-07T11:39:29;22.00;99.90
14188;DHT22;7175;51.978;5.330;2023-05-07T11:41:59;22.00;99.90
14188;DHT22;7175;51.978;5.330;2023-05-07T11:44:44;21.70;99.90
14188;DHT22;7175;51.978;5.330;2023-05-07T11:47:17;21.90;99.90
14188;DHT22;7175;51.978;5.330;2023-05-07T11:49:47;22.00;99.90
14188;DHT22;7175;51.978;5.330;2023-05-07T11:52:16;21.80;99.90
14188;DHT22;7175;51.978;5.330;2023-05-07T11:54:49;22.10;99.90
14188;DHT22;7175;51.978;5.330;2023-05-07T11:57:17;22.60;99.90
14188;DHT22;7175;51.978;5.330;2023-05-07T11:59:48;22.70;99.90
14188;DHT22;7175;51.978;5.330;2023-05-07T12:02:21;22.70;99.90
14188;DHT22;7175;51.978;5.330;2023-05-07T12:04:52;22.30;99.90
14188;DHT22;7175;51.978;5.330;2023-05-07T12:07:21;22.10;99.90
14188;DHT22;7175;51.978;5.330;2023-05-07T12:09:50;21.90;99.90
14188;DHT22;7175;51.978;5.330;2023-05-07T12:12:18;21.80;99.90
14188;DHT22;7175;51.978;5.330;2023-05-07T12:14:48;21.30;99.90
14188;DHT22;7175;51.978;5.330;2023-05-07T12:17:17;21.40;99.90
14188;DHT22;7175;51.978;5.330;2023-05-07T12:19:46;21.80;99.90
14188;DHT22;7175;51.978;5.330;2023-05-07T12:22:15;21.70;99.90
14188;DHT22;7175;51.978;5.330;2023-05-07T12:24:45;21.50;99.90
14188;DHT22;7175;51.978;5.330;2023-05-07T12:27:14;21.30;99.90
14188;DHT22;7175;51.978;5.330;2023-05-07T12:29:44;21.50;99.90
14188;DHT22;7175;51.978;5.330;2023-05-07T12:32:15;21.50;99.90
14188;DHT22;7175;51.978;5.330;2023-05-07T12:34:44;21.60;99.90
14188;DHT22;7175;51.978;5.330;2023-05-07T12:37:13;21.60;99.90
14188;DHT22;7175;51.978;5.330;2023-05-07T12:39:47;21.70;99.90
14188;DHT22;7175;51.978;5.330;2023-05-07T12:42:16;21.90;99.90
14188;DHT22;7175;51.978;5.330;2023-05-07T12:44:46;22.00;99.90
14188;DHT22;7175;51.978;5.330;2023-05-07T12:47:16;22.10;99.90
14188;DHT22;7175;51.978;5.330;2023-05-07T12:49:44;22.00;99.90
14188;DHT22;7175;51.978;5.330;2023-05-07T12:52:14;22.40;99.90
14188;DHT22;7175;51.978;5.330;2023-05-07T12:54:44;22.60;99.90
14188;DHT22;7175;51.978;5.330;2023-05-07T12:57:13;22.60;99.90
14188;DHT22;7175;51.978;5.330;2023-05-07T12:59:42;22.40;99.90
14188;DHT22;7175;51.978;5.330;2023-05-07T13:02:10;22.20;99.90
14188;DHT22;7175;51.978;5.330;2023-05-07T13:04:40;22.20;99.90
14188;DHT22;7175;51.978;5.330;2023-05-07T13:07:09;21.70;99.90
14188;DHT22;7175;51.978;5.330;2023-05-07T13:09:37;21.70;99.90
14188;DHT22;7175;51.978;5.330;2023-05-07T13:12:06;21.80;99.90
14188;DHT22;7175;51.978;5.330;2023-05-07T13:14:34;21.90;99.90
14188;DHT22;7175;51.978;5.330;2023-05-07T13:17:03;21.70;99.90
14188;DHT22;7175;51.978;5.330;2023-05-07T13:19:31;21.80;99.90
14188;DHT22;7175;51.978;5.330;2023-05-07T13:22:01;21.90;99.90
14188;DHT22;7175;51.978;5.330;2023-05-07T13:24:29;21.90;99.90
14188;DHT22;7175;51.978;5.330;2023-05-07T13:26:58;21.90;99.90
14188;DHT22;7175;51.978;5.330;2023-05-07T13:29:26;21.70;99.90
14188;DHT22;7175;51.978;5.330;2023-05-07T13:31:59;21.80;99.90
14188;DHT22;7175;51.978;5.330;2023-05-07T13:34:28;21.90;99.90
14188;DHT22;7175;51.978;5.330;2023-05-07T13:36:57;22.00;99.90
14188;DHT22;7175;51.978;5.330;2023-05-07T13:39:28;21.70;99.90
14188;DHT22;7175;51.978;5.330;2023-05-07T13:41:56;21.90;99.90
14188;DHT22;7175;51.978;5.330;2023-05-07T13:44:26;22.00;99.90
14188;DHT22;7175;51.978;5.330;2023-05-07T13:46:55;22.20;99.90
14188;DHT22;7175;51.978;5.330;2023-05-07T13:49:23;22.20;99.90
14188;DHT22;7175;51.978;5.330;2023-05-07T13:51:53;22.50;99.90
14188;DHT22;7175;51.978;5.330;2023-05-07T13:54:23;23.00;99.90
14188;DHT22;7175;51.978;5.330;2023-05-07T13:56:53;23.30;99.90
14188;DHT22;7175;51.978;5.330;2023-05-07T13:59:22;23.30;99.90
14188;DHT22;7175;51.978;5.330;2023-05-07T14:01:52;23.50;99.90
14188;DHT22;7175;51.978;5.330;2023-05-07T14:04:23;22.90;99.90
14188;DHT22;7175;51.978;5.330;2023-05-07T14:06:52;22.80;99.90
14188;DHT22;7175;51.978;5.330;2023-05-07T14:09:21;22.90;99.90
14188;DHT22;7175;51.978;5.330;2023-05-07T14:11:50;23.00;99.90
14188;DHT22;7175;51.978;5.330;2023-05-07T14:14:21;23.10;99.90
14188;DHT22;7175;51.978;5.330;2023-05-07T14:16:49;22.30;99.90
14188;DHT22;7175;51.978;5.330;2023-05-07T14:19:18;22.50;99.90
14188;DHT22;7175;51.978;5.330;2023-05-07T14:21:50;22.70;99.90
14188;DHT22;7175;51.978;5.330;2023-05-07T14:24:19;22.60;99.90
14188;DHT22;7175;51.978;5.330;2023-05-07T14:27:04;22.40;99.90
14188;DHT22;7175;51.978;5.330;2023-05-07T14:29:37;22.60;99.90
14188;DHT22;7175;51.978;5.330;2023-05-07T14:32:06;22.50;99.90
14188;DHT22;7175;51.978;5.330;2023-05-07T14:34:35;22.50;99.90
14188;DHT22;7175;51.978;5.330;2023-05-07T14:37:04;22.40;99.90
14188;DHT22;7175;51.978;5.330;2023-05-07T14:39:32;22.30;99.90
14188;DHT22;7175;51.978;5.330;2023-05-07T14:42:01;22.10;99.90
14188;DHT22;7175;51.978;5.330;2023-05-07T14:44:29;22.00;99.90
14188;DHT22;7175;51.978;5.330;2023-05-07T14:46:59;21.70;99.90
14188;DHT22;7175;51.978;5.330;2023-05-07T14:49:28;21.70;99.90
14188;DHT22;7175;51.978;5.330;2023-05-07T14:51:57;21.80;99.90
14188;DHT22;7175;51.978;5.330;2023-05-07T14:54:27;21.80;99.90
14188;DHT22;7175;51.978;5.330;2023-05-07T14:56:55;21.80;99.90
14188;DHT22;7175;51.978;5.330;2023-05-07T14:59:24;21.80;99.90
14188;DHT22;7175;51.978;5.330;2023-05-07T15:01:52;21.80;99.90
14188;DHT22;7175;51.978;5.330;2023-05-07T15:04:23;21.90;99.90
14188;DHT22;7175;51.978;5.330;2023-05-07T15:06:52;21.90;99.90
14188;DHT22;7175;51.978;5.330;2023-05-07T15:09:20;21.90;99.90
14188;DHT22;7175;51.978;5.330;2023-05-07T15:11:49;21.80;99.90
14188;DHT22;7175;51.978;5.330;2023-05-07T15:14:17;21.90;99.90
14188;DHT22;7175;51.978;5.330;2023-05-07T15:16:45;22.10;99.90
14188;DHT22;7175;51.978;5.330;2023-05-07T15:19:14;22.30;99.90
14188;DHT22;7175;51.978;5.330;2023-05-07T15:21:45;22.30;99.90
14188;DHT22;7175;51.978;5.330;2023-05-07T15:24:13;22.20;99.90
14188;DHT22;7175;51.978;5.330;2023-05-07T15:26:42;22.30;99.90
14188;DHT22;7175;51.978;5.330;2023-05-07T15:29:10;21.90;99.90
14188;DHT22;7175;51.978;5.330;2023-05-07T15:31:38;21.40;99.90
14188;DHT22;7175;51.978;5.330;2023-05-07T15:34:06;21.20;99.90
14188;DHT22;7175;51.978;5.330;2023-05-07T15:36:35;21.10;99.90
14188;DHT22;7175;51.978;5.330;2023-05-07T15:39:04;20.90;99.90
14188;DHT22;7175;51.978;5.330;2023-05-07T15:41:33;20.70;99.90
14188;DHT22;7175;51.978;5.330;2023-05-07T15:44:01;20.50;99.90
14188;DHT22;7175;51.978;5.330;2023-05-07T15:46:29;20.40;99.90
14188;DHT22;7175;51.978;5.330;2023-05-07T15:48:57;20.30;99.90
14188;DHT22;7175;51.978;5.330;2023-05-07T15:51:25;20.20;99.90
14188;DHT22;7175;51.978;5.330;2023-05-07T15:53:55;19.90;99.90
14188;DHT22;7175;51.978;5.330;2023-05-07T15:56:24;19.50;99.90
14188;DHT22;7175;51.978;5.330;2023-05-07T15:58:52;19.30;99.90
14188;DHT22;7175;51.978;5.330;2023-05-07T16:01:20;19.30;99.90
14188;DHT22;7175;51.978;5.330;2023-05-07T16:03:51;19.10;99.90
14188;DHT22;7175;51.978;5.330;2023-05-07T16:06:19;19.10;99.90